sensor_id;sensor_type;location;lat;lon;timestamp;P1;durP1;ratioP1;P2;durP2;ratioP2
73567;SDS011;61847;54.994;73.310;2022-09-13T00:01:07;11.48;;;5.05;;
73567;SDS011;61847;54.994;73.310;2022-09-13T00:03:35;10.65;;;4.85;;
73567;SDS011;61847;54.994;73.310;2022-09-13T00:06:07;19.58;;;4.43;;
73567;SDS011;61847;54.994;73.310;2022-09-13T00:08:37;32.78;;;15.18;;
73567;SDS011;61847;54.994;73.310;2022-09-13T00:11:06;17.15;;;6.22;;
73567;SDS011;61847;54.994;73.310;2022-09-13T00:13:37;18.02;;;5.40;;
73567;SDS011;61847;54.994;73.310;2022-09-13T00:16:16;34.15;;;4.85;;
73567;SDS011;61847;54.994;73.310;2022-09-13T00:18:43;13.82;;;4.43;;
73567;SDS011;61847;54.994;73.310;2022-09-13T00:21:21;25.92;;;4.85;;
73567;SDS011;61847;54.994;73.310;2022-09-13T00:23:49;28.13;;;4.53;;
73567;SDS011;61847;54.994;73.310;2022-09-13T00:26:18;32.97;;;5.82;;
73567;SDS011;61847;54.994;73.310;2022-09-13T00:28:50;29.90;;;5.13;;
73567;SDS011;61847;54.994;73.310;2022-09-13T00:31:17;30.58;;;5.85;;
73567;SDS011;61847;54.994;73.310;2022-09-13T00:33:45;21.27;;;4.15;;
73567;SDS011;61847;54.994;73.310;2022-09-13T00:36:16;19.33;;;5.25;;
73567;SDS011;61847;54.994;73.310;2022-09-13T00:38:47;19.50;;;4.63;;
73567;SDS011;61847;54.994;73.310;2022-09-13T00:41:19;24.13;;;4.70;;
73567;SDS011;61847;54.994;73.310;2022-09-13T00:43:50;16.67;;;5.28;;
73567;SDS011;61847;54.994;73.310;2022-09-13T00:52:03;25.38;;;4.65;;
73567;SDS011;61847;54.994;73.310;2022-09-13T00:54:41;19.95;;;4.57;;
73567;SDS011;61847;54.994;73.310;2022-09-13T00:57:19;19.58;;;4.22;;
73567;SDS011;61847;54.994;73.310;2022-09-13T00:59:58;25.05;;;5.47;;
73567;SDS011;61847;54.994;73.310;2022-09-13T01:02:37;21.20;;;4.63;;
73567;SDS011;61847;54.994;73.310;2022-09-13T01:05:06;15.90;;;3.95;;
73567;SDS011;61847;54.994;73.310;2022-09-13T01:07:34;24.60;;;4.57;;
73567;SDS011;61847;54.994;73.310;2022-09-13T01:10:01;23.80;;;4.70;;
73567;SDS011;61847;54.994;73.310;2022-09-13T01:13:05;25.75;;;5.10;;
73567;SDS011;61847;54.994;73.310;2022-09-13T01:15:42;15.80;;;3.90;;
73567;SDS011;61847;54.994;73.310;2022-09-13T01:18:09;33.60;;;4.82;;
73567;SDS011;61847;54.994;73.310;2022-09-13T01:20:45;23.23;;;4.93;;
73567;SDS011;61847;54.994;73.310;2022-09-13T01:32:17;22.92;;;4.80;;
73567;SDS011;61847;54.994;73.310;2022-09-13T01:51:59;26.10;;;5.72;;
73567;SDS011;61847;54.994;73.310;2022-09-13T02:02:18;50.30;;;7.47;;
73567;SDS011;61847;54.994;73.310;2022-09-13T02:04:54;61.15;;;7.55;;
73567;SDS011;61847;54.994;73.310;2022-09-13T02:07:40;66.03;;;7.38;;
73567;SDS011;61847;54.994;73.310;2022-09-13T02:10:21;42.33;;;7.45;;
73567;SDS011;61847;54.994;73.310;2022-09-13T02:13:03;50.30;;;7.25;;
73567;SDS011;61847;54.994;73.310;2022-09-13T02:15:46;52.80;;;6.80;;
73567;SDS011;61847;54.994;73.310;2022-09-13T02:18:16;66.30;;;8.80;;
73567;SDS011;61847;54.994;73.310;2022-09-13T02:20:53;44.38;;;6.97;;
73567;SDS011;61847;54.994;73.310;2022-09-13T02:23:31;38.25;;;6.97;;
73567;SDS011;61847;54.994;73.310;2022-09-13T02:26:03;39.67;;;6.07;;
73567;SDS011;61847;54.994;73.310;2022-09-13T02:28:34;33.40;;;5.90;;
73567;SDS011;61847;54.994;73.310;2022-09-13T02:31:03;21.92;;;5.78;;
73567;SDS011;61847;54.994;73.310;2022-09-13T02:33:35;49.33;;;6.20;;
73567;SDS011;61847;54.994;73.310;2022-09-13T02:44:05;35.33;;;5.47;;
73567;SDS011;61847;54.994;73.310;2022-09-13T02:46:54;34.53;;;5.47;;
73567;SDS011;61847;54.994;73.310;2022-09-13T02:49:47;35.58;;;6.13;;
73567;SDS011;61847;54.994;73.310;2022-09-13T02:55:21;18.75;;;4.47;;
73567;SDS011;61847;54.994;73.310;2022-09-13T02:58:08;19.33;;;4.18;;
73567;SDS011;61847;54.994;73.310;2022-09-13T03:00:51;23.98;;;3.92;;
73567;SDS011;61847;54.994;73.310;2022-09-13T03:03:17;17.08;;;3.40;;
73567;SDS011;61847;54.994;73.310;2022-09-13T03:05:43;19.52;;;3.50;;
73567;SDS011;61847;54.994;73.310;2022-09-13T03:08:10;33.10;;;3.38;;
73567;SDS011;61847;54.994;73.310;2022-09-13T03:16:30;18.83;;;3.10;;
73567;SDS011;61847;54.994;73.310;2022-09-13T03:30:43;26.35;;;3.70;;
73567;SDS011;61847;54.994;73.310;2022-09-13T03:36:02;30.77;;;3.10;;
73567;SDS011;61847;54.994;73.310;2022-09-13T03:38:55;16.95;;;3.15;;
73567;SDS011;61847;54.994;73.310;2022-09-13T03:41:38;23.23;;;3.60;;
73567;SDS011;61847;54.994;73.310;2022-09-13T03:44:10;20.83;;;3.20;;
73567;SDS011;61847;54.994;73.310;2022-09-13T03:46:43;30.90;;;3.30;;
73567;SDS011;61847;54.994;73.310;2022-09-13T03:49:15;36.30;;;4.28;;
73567;SDS011;61847;54.994;73.310;2022-09-13T03:51:43;17.35;;;3.58;;
73567;SDS011;61847;54.994;73.310;2022-09-13T03:54:27;37.95;;;4.18;;
73567;SDS011;61847;54.994;73.310;2022-09-13T03:59:51;18.63;;;4.00;;
73567;SDS011;61847;54.994;73.310;2022-09-13T04:02:27;25.73;;;4.25;;
73567;SDS011;61847;54.994;73.310;2022-09-13T04:04:53;26.20;;;4.70;;
73567;SDS011;61847;54.994;73.310;2022-09-13T04:07:22;26.15;;;4.85;;
73567;SDS011;61847;54.994;73.310;2022-09-13T04:09:59;33.20;;;5.13;;
73567;SDS011;61847;54.994;73.310;2022-09-13T04:12:25;31.48;;;4.80;;
73567;SDS011;61847;54.994;73.310;2022-09-13T04:14:56;39.92;;;6.63;;
73567;SDS011;61847;54.994;73.310;2022-09-13T04:17:25;26.35;;;3.15;;
73567;SDS011;61847;54.994;73.310;2022-09-13T04:19:51;26.17;;;3.65;;
73567;SDS011;61847;54.994;73.310;2022-09-13T04:22:18;15.55;;;2.65;;
73567;SDS011;61847;54.994;73.310;2022-09-13T04:24:44;27.35;;;2.90;;
73567;SDS011;61847;54.994;73.310;2022-09-13T04:27:15;26.27;;;3.03;;
73567;SDS011;61847;54.994;73.310;2022-09-13T04:29:41;20.80;;;3.35;;
73567;SDS011;61847;54.994;73.310;2022-09-13T04:32:08;23.48;;;2.90;;
73567;SDS011;61847;54.994;73.310;2022-09-13T04:34:35;20.80;;;2.88;;
73567;SDS011;61847;54.994;73.310;2022-09-13T04:37:11;23.48;;;2.85;;
73567;SDS011;61847;54.994;73.310;2022-09-13T04:39:37;44.85;;;3.00;;
73567;SDS011;61847;54.994;73.310;2022-09-13T04:42:04;24.30;;;2.97;;
73567;SDS011;61847;54.994;73.310;2022-09-13T04:44:31;20.45;;;3.03;;
73567;SDS011;61847;54.994;73.310;2022-09-13T04:47:08;28.50;;;3.60;;
73567;SDS011;61847;54.994;73.310;2022-09-13T04:49:34;9.77;;;2.70;;
73567;SDS011;61847;54.994;73.310;2022-09-13T04:52:01;21.10;;;2.92;;
73567;SDS011;61847;54.994;73.310;2022-09-13T04:54:27;20.25;;;3.40;;
73567;SDS011;61847;54.994;73.310;2022-09-13T04:56:54;24.35;;;3.60;;
73567;SDS011;61847;54.994;73.310;2022-09-13T04:59:21;19.08;;;3.88;;
73567;SDS011;61847;54.994;73.310;2022-09-13T05:01:48;23.58;;;3.13;;
73567;SDS011;61847;54.994;73.310;2022-09-13T05:04:24;15.18;;;2.78;;
73567;SDS011;61847;54.994;73.310;2022-09-13T05:06:51;28.92;;;2.92;;
73567;SDS011;61847;54.994;73.310;2022-09-13T05:09:22;28.10;;;2.70;;
73567;SDS011;61847;54.994;73.310;2022-09-13T05:11:58;41.38;;;6.72;;
73567;SDS011;61847;54.994;73.310;2022-09-13T05:14:25;16.30;;;2.45;;
73567;SDS011;61847;54.994;73.310;2022-09-13T05:16:51;16.48;;;2.50;;
73567;SDS011;61847;54.994;73.310;2022-09-13T05:19:17;19.95;;;2.92;;
73567;SDS011;61847;54.994;73.310;2022-09-13T05:21:46;17.13;;;2.35;;
73567;SDS011;61847;54.994;73.310;2022-09-13T05:24:12;18.80;;;2.25;;
73567;SDS011;61847;54.994;73.310;2022-09-13T05:26:39;20.30;;;2.17;;
73567;SDS011;61847;54.994;73.310;2022-09-13T05:29:05;48.95;;;12.02;;
73567;SDS011;61847;54.994;73.310;2022-09-13T05:31:33;15.30;;;4.68;;
73567;SDS011;61847;54.994;73.310;2022-09-13T05:34:02;15.68;;;1.55;;
73567;SDS011;61847;54.994;73.310;2022-09-13T05:36:31;9.45;;;1.20;;
73567;SDS011;61847;54.994;73.310;2022-09-13T05:38:58;6.45;;;1.33;;
73567;SDS011;61847;54.994;73.310;2022-09-13T05:41:26;8.57;;;1.45;;
73567;SDS011;61847;54.994;73.310;2022-09-13T05:43:52;10.80;;;1.65;;
73567;SDS011;61847;54.994;73.310;2022-09-13T05:46:22;10.15;;;1.67;;
73567;SDS011;61847;54.994;73.310;2022-09-13T05:48:49;22.40;;;2.63;;
73567;SDS011;61847;54.994;73.310;2022-09-13T05:51:18;13.40;;;1.88;;
73567;SDS011;61847;54.994;73.310;2022-09-13T05:53:47;13.05;;;1.80;;
73567;SDS011;61847;54.994;73.310;2022-09-13T05:56:18;11.98;;;2.08;;
73567;SDS011;61847;54.994;73.310;2022-09-13T05:58:46;13.65;;;2.00;;
73567;SDS011;61847;54.994;73.310;2022-09-13T06:01:18;13.20;;;1.77;;
73567;SDS011;61847;54.994;73.310;2022-09-13T06:03:46;7.68;;;1.58;;
73567;SDS011;61847;54.994;73.310;2022-09-13T06:06:16;13.63;;;1.90;;
73567;SDS011;61847;54.994;73.310;2022-09-13T06:08:43;14.20;;;1.35;;
73567;SDS011;61847;54.994;73.310;2022-09-13T06:11:10;7.55;;;1.70;;
73567;SDS011;61847;54.994;73.310;2022-09-13T06:13:38;15.45;;;1.60;;
73567;SDS011;61847;54.994;73.310;2022-09-13T06:16:09;8.60;;;1.77;;
73567;SDS011;61847;54.994;73.310;2022-09-13T06:18:37;14.77;;;2.15;;
73567;SDS011;61847;54.994;73.310;2022-09-13T06:21:04;15.20;;;1.55;;
73567;SDS011;61847;54.994;73.310;2022-09-13T06:23:33;19.48;;;3.08;;
73567;SDS011;61847;54.994;73.310;2022-09-13T06:26:01;6.75;;;1.75;;
73567;SDS011;61847;54.994;73.310;2022-09-13T06:28:36;11.02;;;2.13;;
73567;SDS011;61847;54.994;73.310;2022-09-13T06:31:03;10.35;;;1.98;;
73567;SDS011;61847;54.994;73.310;2022-09-13T06:33:37;17.55;;;1.67;;
73567;SDS011;61847;54.994;73.310;2022-09-13T06:36:06;28.63;;;2.08;;
73567;SDS011;61847;54.994;73.310;2022-09-13T06:38:37;14.25;;;1.50;;
73567;SDS011;61847;54.994;73.310;2022-09-13T06:41:05;12.07;;;1.42;;
73567;SDS011;61847;54.994;73.310;2022-09-13T06:43:43;16.00;;;1.88;;
73567;SDS011;61847;54.994;73.310;2022-09-13T06:46:11;13.40;;;1.25;;
73567;SDS011;61847;54.994;73.310;2022-09-13T06:48:39;13.43;;;1.67;;
73567;SDS011;61847;54.994;73.310;2022-09-13T06:51:17;21.13;;;2.10;;
73567;SDS011;61847;54.994;73.310;2022-09-13T06:53:46;7.63;;;1.40;;
73567;SDS011;61847;54.994;73.310;2022-09-13T06:56:15;13.93;;;1.35;;
73567;SDS011;61847;54.994;73.310;2022-09-13T06:58:44;14.48;;;2.60;;
73567;SDS011;61847;54.994;73.310;2022-09-13T07:04:03;25.30;;;3.05;;
73567;SDS011;61847;54.994;73.310;2022-09-13T07:06:47;14.23;;;4.38;;
73567;SDS011;61847;54.994;73.310;2022-09-13T07:09:15;14.98;;;3.92;;
73567;SDS011;61847;54.994;73.310;2022-09-13T07:11:43;8.45;;;1.55;;
73567;SDS011;61847;54.994;73.310;2022-09-13T07:14:12;9.27;;;1.30;;
73567;SDS011;61847;54.994;73.310;2022-09-13T07:16:39;11.50;;;1.38;;
73567;SDS011;61847;54.994;73.310;2022-09-13T07:19:06;5.47;;;1.38;;
73567;SDS011;61847;54.994;73.310;2022-09-13T07:21:36;5.30;;;1.00;;
73567;SDS011;61847;54.994;73.310;2022-09-13T07:24:02;10.88;;;1.10;;
73567;SDS011;61847;54.994;73.310;2022-09-13T07:26:29;11.63;;;1.58;;
73567;SDS011;61847;54.994;73.310;2022-09-13T07:28:57;21.55;;;1.75;;
73567;SDS011;61847;54.994;73.310;2022-09-13T07:31:33;12.93;;;1.45;;
73567;SDS011;61847;54.994;73.310;2022-09-13T07:34:02;21.08;;;1.83;;
73567;SDS011;61847;54.994;73.310;2022-09-13T07:36:33;13.55;;;1.30;;
73567;SDS011;61847;54.994;73.310;2022-09-13T07:39:01;8.18;;;1.08;;
73567;SDS011;61847;54.994;73.310;2022-09-13T07:41:28;7.18;;;1.70;;
73567;SDS011;61847;54.994;73.310;2022-09-13T07:44:01;9.32;;;2.00;;
73567;SDS011;61847;54.994;73.310;2022-09-13T07:46:30;12.70;;;1.65;;
73567;SDS011;61847;54.994;73.310;2022-09-13T07:48:57;16.58;;;1.70;;
73567;SDS011;61847;54.994;73.310;2022-09-13T07:51:25;9.77;;;1.27;;
73567;SDS011;61847;54.994;73.310;2022-09-13T07:53:54;8.77;;;1.05;;
73567;SDS011;61847;54.994;73.310;2022-09-13T07:56:25;7.50;;;0.90;;
73567;SDS011;61847;54.994;73.310;2022-09-13T07:58:58;44.30;;;20.15;;
73567;SDS011;61847;54.994;73.310;2022-09-13T08:01:27;13.10;;;2.97;;
73567;SDS011;61847;54.994;73.310;2022-09-13T08:04:00;23.67;;;2.58;;
73567;SDS011;61847;54.994;73.310;2022-09-13T08:06:31;29.45;;;2.50;;
73567;SDS011;61847;54.994;73.310;2022-09-13T08:09:00;26.63;;;3.63;;
73567;SDS011;61847;54.994;73.310;2022-09-13T08:11:32;18.77;;;2.78;;
73567;SDS011;61847;54.994;73.310;2022-09-13T08:14:04;15.70;;;2.15;;
73567;SDS011;61847;54.994;73.310;2022-09-13T08:16:32;20.50;;;3.75;;
73567;SDS011;61847;54.994;73.310;2022-09-13T08:19:00;4.38;;;1.40;;
73567;SDS011;61847;54.994;73.310;2022-09-13T08:21:32;10.85;;;1.17;;
73567;SDS011;61847;54.994;73.310;2022-09-13T08:24:00;9.70;;;1.30;;
73567;SDS011;61847;54.994;73.310;2022-09-13T08:26:28;2.40;;;1.20;;
73567;SDS011;61847;54.994;73.310;2022-09-13T08:29:02;9.77;;;1.00;;
73567;SDS011;61847;54.994;73.310;2022-09-13T08:31:31;6.10;;;1.00;;
73567;SDS011;61847;54.994;73.310;2022-09-13T08:34:00;10.38;;;1.30;;
73567;SDS011;61847;54.994;73.310;2022-09-13T08:36:27;7.68;;;2.20;;
73567;SDS011;61847;54.994;73.310;2022-09-13T08:38:57;7.35;;;1.25;;
73567;SDS011;61847;54.994;73.310;2022-09-13T08:47:12;11.50;;;1.08;;
73567;SDS011;61847;54.994;73.310;2022-09-13T08:50:03;28.48;;;10.93;;
73567;SDS011;61847;54.994;73.310;2022-09-13T09:01:11;7.45;;;1.08;;
73567;SDS011;61847;54.994;73.310;2022-09-13T09:03:54;6.30;;;1.42;;
73567;SDS011;61847;54.994;73.310;2022-09-13T09:06:31;6.88;;;2.15;;
73567;SDS011;61847;54.994;73.310;2022-09-13T09:09:02;8.25;;;1.58;;
73567;SDS011;61847;54.994;73.310;2022-09-13T09:17:29;16.80;;;6.75;;
73567;SDS011;61847;54.994;73.310;2022-09-13T09:20:10;7.03;;;2.50;;
73567;SDS011;61847;54.994;73.310;2022-09-13T09:23:07;7.25;;;2.13;;
73567;SDS011;61847;54.994;73.310;2022-09-13T09:25:44;13.43;;;1.77;;
73567;SDS011;61847;54.994;73.310;2022-09-13T09:28:15;8.10;;;1.60;;
73567;SDS011;61847;54.994;73.310;2022-09-13T09:31:00;13.50;;;1.60;;
73567;SDS011;61847;54.994;73.310;2022-09-13T09:39:03;15.43;;;1.60;;
73567;SDS011;61847;54.994;73.310;2022-09-13T09:41:35;4.50;;;1.33;;
73567;SDS011;61847;54.994;73.310;2022-09-13T09:44:13;22.52;;;3.72;;
73567;SDS011;61847;54.994;73.310;2022-09-13T09:47:00;39.78;;;15.38;;
73567;SDS011;61847;54.994;73.310;2022-09-13T09:49:32;21.13;;;5.30;;
73567;SDS011;61847;54.994;73.310;2022-09-13T09:52:24;17.17;;;1.50;;
73567;SDS011;61847;54.994;73.310;2022-09-13T09:55:03;12.75;;;1.98;;
73567;SDS011;61847;54.994;73.310;2022-09-13T10:00:36;8.80;;;1.67;;
73567;SDS011;61847;54.994;73.310;2022-09-13T10:03:27;12.30;;;1.52;;
73567;SDS011;61847;54.994;73.310;2022-09-13T10:06:12;11.95;;;1.80;;
73567;SDS011;61847;54.994;73.310;2022-09-13T10:08:45;4.47;;;1.10;;
73567;SDS011;61847;54.994;73.310;2022-09-13T10:11:20;10.27;;;1.15;;
73567;SDS011;61847;54.994;73.310;2022-09-13T10:13:59;3.00;;;1.05;;
73567;SDS011;61847;54.994;73.310;2022-09-13T10:16:28;12.38;;;1.45;;
73567;SDS011;61847;54.994;73.310;2022-09-13T10:19:20;21.55;;;1.98;;
73567;SDS011;61847;54.994;73.310;2022-09-13T10:22:09;15.82;;;1.42;;
73567;SDS011;61847;54.994;73.310;2022-09-13T10:24:37;18.77;;;1.63;;
73567;SDS011;61847;54.994;73.310;2022-09-13T10:27:28;18.15;;;1.70;;
73567;SDS011;61847;54.994;73.310;2022-09-13T10:29:59;22.25;;;5.75;;
73567;SDS011;61847;54.994;73.310;2022-09-13T10:32:31;16.48;;;1.60;;
73567;SDS011;61847;54.994;73.310;2022-09-13T10:35:14;6.88;;;1.20;;
73567;SDS011;61847;54.994;73.310;2022-09-13T10:37:44;17.35;;;1.38;;
73567;SDS011;61847;54.994;73.310;2022-09-13T10:40:23;3.15;;;1.10;;
73567;SDS011;61847;54.994;73.310;2022-09-13T10:42:59;12.48;;;1.25;;
73567;SDS011;61847;54.994;73.310;2022-09-13T10:45:29;8.35;;;1.40;;
73567;SDS011;61847;54.994;73.310;2022-09-13T10:47:58;7.13;;;1.38;;
73567;SDS011;61847;54.994;73.310;2022-09-13T10:50:58;17.58;;;1.42;;
73567;SDS011;61847;54.994;73.310;2022-09-13T10:54:06;14.90;;;1.40;;
73567;SDS011;61847;54.994;73.310;2022-09-13T10:56:48;14.13;;;2.00;;
73567;SDS011;61847;54.994;73.310;2022-09-13T10:59:18;7.10;;;1.65;;
73567;SDS011;61847;54.994;73.310;2022-09-13T11:16:43;5.65;;;1.00;;
73567;SDS011;61847;54.994;73.310;2022-09-13T11:19:39;10.27;;;1.02;;
73567;SDS011;61847;54.994;73.310;2022-09-13T11:22:21;8.65;;;1.02;;
73567;SDS011;61847;54.994;73.310;2022-09-13T11:39:04;14.93;;;1.00;;
73567;SDS011;61847;54.994;73.310;2022-09-13T11:48:03;20.45;;;1.42;;
73567;SDS011;61847;54.994;73.310;2022-09-13T11:53:43;10.70;;;1.35;;
73567;SDS011;61847;54.994;73.310;2022-09-13T11:56:25;16.48;;;1.38;;
73567;SDS011;61847;54.994;73.310;2022-09-13T12:01:41;18.50;;;1.70;;
73567;SDS011;61847;54.994;73.310;2022-09-13T12:04:38;11.32;;;1.27;;
73567;SDS011;61847;54.994;73.310;2022-09-13T12:07:13;19.63;;;1.80;;
73567;SDS011;61847;54.994;73.310;2022-09-13T12:09:54;18.45;;;1.42;;
73567;SDS011;61847;54.994;73.310;2022-09-13T12:12:30;16.45;;;1.67;;
73567;SDS011;61847;54.994;73.310;2022-09-13T12:15:04;14.65;;;1.80;;
73567;SDS011;61847;54.994;73.310;2022-09-13T12:17:38;14.20;;;1.65;;
73567;SDS011;61847;54.994;73.310;2022-09-13T12:20:19;14.55;;;1.63;;
73567;SDS011;61847;54.994;73.310;2022-09-13T12:23:02;21.23;;;2.38;;
73567;SDS011;61847;54.994;73.310;2022-09-13T12:25:57;29.75;;;2.25;;
73567;SDS011;61847;54.994;73.310;2022-09-13T12:31:30;31.60;;;2.33;;
73567;SDS011;61847;54.994;73.310;2022-09-13T12:33:57;21.35;;;2.47;;
73567;SDS011;61847;54.994;73.310;2022-09-13T12:39:15;22.85;;;2.90;;
73567;SDS011;61847;54.994;73.310;2022-09-13T12:44:56;26.73;;;3.20;;
73567;SDS011;61847;54.994;73.310;2022-09-13T12:53:24;11.95;;;2.78;;
73567;SDS011;61847;54.994;73.310;2022-09-13T12:58:54;14.95;;;2.80;;
73567;SDS011;61847;54.994;73.310;2022-09-13T13:01:39;19.50;;;2.97;;
73567;SDS011;61847;54.994;73.310;2022-09-13T13:04:15;38.95;;;3.17;;
73567;SDS011;61847;54.994;73.310;2022-09-13T13:09:39;24.15;;;3.10;;
73567;SDS011;61847;54.994;73.310;2022-09-13T13:15:00;26.20;;;3.17;;
73567;SDS011;61847;54.994;73.310;2022-09-13T13:23:22;30.92;;;3.40;;
73567;SDS011;61847;54.994;73.310;2022-09-13T13:26:07;23.27;;;3.08;;
73567;SDS011;61847;54.994;73.310;2022-09-13T13:47:39;22.95;;;3.88;;
73567;SDS011;61847;54.994;73.310;2022-09-13T13:49:44;18.42;;;3.40;;
73567;SDS011;61847;54.994;73.310;2022-09-13T14:20:28;93.03;;;15.30;;
73567;SDS011;61847;54.994;73.310;2022-09-13T14:23:11;84.75;;;21.20;;
73567;SDS011;61847;54.994;73.310;2022-09-13T14:25:52;76.65;;;22.70;;
73567;SDS011;61847;54.994;73.310;2022-09-13T14:28:22;88.72;;;20.45;;
73567;SDS011;61847;54.994;73.310;2022-09-13T14:30:56;74.40;;;20.15;;
73567;SDS011;61847;54.994;73.310;2022-09-13T14:33:28;80.35;;;19.20;;
73567;SDS011;61847;54.994;73.310;2022-09-13T14:36:16;71.50;;;19.42;;
73567;SDS011;61847;54.994;73.310;2022-09-13T14:38:47;76.85;;;20.05;;
73567;SDS011;61847;54.994;73.310;2022-09-13T14:41:17;57.95;;;18.77;;
73567;SDS011;61847;54.994;73.310;2022-09-13T14:43:45;67.90;;;19.30;;
73567;SDS011;61847;54.994;73.310;2022-09-13T14:46:36;59.67;;;17.63;;
73567;SDS011;61847;54.994;73.310;2022-09-13T14:49:08;52.95;;;16.80;;
73567;SDS011;61847;54.994;73.310;2022-09-13T14:51:56;64.40;;;18.50;;
73567;SDS011;61847;54.994;73.310;2022-09-13T14:57:01;60.80;;;17.13;;
73567;SDS011;61847;54.994;73.310;2022-09-13T14:59:31;62.25;;;18.17;;
73567;SDS011;61847;54.994;73.310;2022-09-13T15:02:19;65.95;;;19.65;;
73567;SDS011;61847;54.994;73.310;2022-09-13T15:04:52;75.43;;;19.88;;
73567;SDS011;61847;54.994;73.310;2022-09-13T15:07:26;62.08;;;20.92;;
73567;SDS011;61847;54.994;73.310;2022-09-13T15:31:23;58.83;;;15.68;;
73567;SDS011;61847;54.994;73.310;2022-09-13T15:34:12;56.97;;;14.60;;
73567;SDS011;61847;54.994;73.310;2022-09-13T15:36:47;62.13;;;14.23;;
73567;SDS011;61847;54.994;73.310;2022-09-13T15:39:44;57.30;;;16.08;;
73567;SDS011;61847;54.994;73.310;2022-09-13T15:42:15;48.65;;;14.13;;
73567;SDS011;61847;54.994;73.310;2022-09-13T15:44:42;45.55;;;13.93;;
73567;SDS011;61847;54.994;73.310;2022-09-13T15:47:17;50.97;;;16.23;;
73567;SDS011;61847;54.994;73.310;2022-09-13T15:49:46;76.85;;;19.20;;
73567;SDS011;61847;54.994;73.310;2022-09-13T15:52:16;62.67;;;18.77;;
73567;SDS011;61847;54.994;73.310;2022-09-13T15:54:46;69.20;;;20.27;;
73567;SDS011;61847;54.994;73.310;2022-09-13T15:57:21;70.47;;;19.15;;
73567;SDS011;61847;54.994;73.310;2022-09-13T15:59:49;67.05;;;19.48;;
73567;SDS011;61847;54.994;73.310;2022-09-13T16:02:18;62.90;;;19.08;;
73567;SDS011;61847;54.994;73.310;2022-09-13T16:04:51;70.53;;;17.45;;
73567;SDS011;61847;54.994;73.310;2022-09-13T16:07:18;71.00;;;19.80;;
73567;SDS011;61847;54.994;73.310;2022-09-13T16:09:51;66.05;;;19.58;;
73567;SDS011;61847;54.994;73.310;2022-09-13T16:12:19;73.38;;;17.70;;
73567;SDS011;61847;54.994;73.310;2022-09-13T16:14:49;66.13;;;17.90;;
73567;SDS011;61847;54.994;73.310;2022-09-13T16:17:25;67.50;;;20.38;;
73567;SDS011;61847;54.994;73.310;2022-09-13T16:19:52;65.80;;;21.33;;
73567;SDS011;61847;54.994;73.310;2022-09-13T16:22:29;52.92;;;15.60;;
73567;SDS011;61847;54.994;73.310;2022-09-13T16:24:57;52.92;;;15.57;;
73567;SDS011;61847;54.994;73.310;2022-09-13T16:27:23;55.90;;;14.82;;
73567;SDS011;61847;54.994;73.310;2022-09-13T16:29:53;51.53;;;14.98;;
73567;SDS011;61847;54.994;73.310;2022-09-13T16:32:19;37.67;;;10.27;;
73567;SDS011;61847;54.994;73.310;2022-09-13T16:34:46;32.92;;;7.85;;
73567;SDS011;61847;54.994;73.310;2022-09-13T16:37:15;27.10;;;6.38;;
73567;SDS011;61847;54.994;73.310;2022-09-13T16:39:42;30.73;;;6.90;;
73567;SDS011;61847;54.994;73.310;2022-09-13T16:42:11;25.88;;;6.30;;
73567;SDS011;61847;54.994;73.310;2022-09-13T16:44:38;26.23;;;6.65;;
73567;SDS011;61847;54.994;73.310;2022-09-13T16:47:09;19.08;;;5.78;;
73567;SDS011;61847;54.994;73.310;2022-09-13T16:49:47;15.02;;;5.20;;
73567;SDS011;61847;54.994;73.310;2022-09-13T16:52:14;20.55;;;5.68;;
73567;SDS011;61847;54.994;73.310;2022-09-13T16:54:41;23.40;;;5.70;;
73567;SDS011;61847;54.994;73.310;2022-09-13T16:57:10;30.40;;;5.70;;
73567;SDS011;61847;54.994;73.310;2022-09-13T16:59:44;15.00;;;5.05;;
73567;SDS011;61847;54.994;73.310;2022-09-13T17:02:21;18.60;;;5.97;;
73567;SDS011;61847;54.994;73.310;2022-09-13T17:04:47;21.50;;;6.10;;
73567;SDS011;61847;54.994;73.310;2022-09-13T17:07:19;18.52;;;5.07;;
73567;SDS011;61847;54.994;73.310;2022-09-13T17:09:48;16.77;;;5.85;;
73567;SDS011;61847;54.994;73.310;2022-09-13T17:12:24;18.67;;;5.45;;
73567;SDS011;61847;54.994;73.310;2022-09-13T17:15:00;19.88;;;5.28;;
73567;SDS011;61847;54.994;73.310;2022-09-13T17:17:27;20.30;;;4.82;;
73567;SDS011;61847;54.994;73.310;2022-09-13T17:20:03;16.85;;;5.03;;
73567;SDS011;61847;54.994;73.310;2022-09-13T17:22:39;17.90;;;4.80;;
73567;SDS011;61847;54.994;73.310;2022-09-13T17:25:08;16.60;;;4.18;;
73567;SDS011;61847;54.994;73.310;2022-09-13T17:27:40;14.75;;;4.10;;
73567;SDS011;61847;54.994;73.310;2022-09-13T17:30:06;18.40;;;4.32;;
73567;SDS011;61847;54.994;73.310;2022-09-13T17:32:40;15.80;;;3.65;;
73567;SDS011;61847;54.994;73.310;2022-09-13T17:35:07;18.10;;;3.30;;
73567;SDS011;61847;54.994;73.310;2022-09-13T17:37:38;14.48;;;3.30;;
73567;SDS011;61847;54.994;73.310;2022-09-13T17:40:04;10.68;;;3.05;;
73567;SDS011;61847;54.994;73.310;2022-09-13T17:42:31;14.43;;;3.55;;
73567;SDS011;61847;54.994;73.310;2022-09-13T17:45:00;10.82;;;2.80;;
73567;SDS011;61847;54.994;73.310;2022-09-13T17:47:36;14.18;;;2.75;;
73567;SDS011;61847;54.994;73.310;2022-09-13T17:50:02;9.48;;;2.90;;
73567;SDS011;61847;54.994;73.310;2022-09-13T17:52:34;15.57;;;2.63;;
73567;SDS011;61847;54.994;73.310;2022-09-13T17:55:01;11.70;;;2.50;;
73567;SDS011;61847;54.994;73.310;2022-09-13T17:57:28;6.85;;;2.53;;
73567;SDS011;61847;54.994;73.310;2022-09-13T17:59:54;8.57;;;2.65;;
73567;SDS011;61847;54.994;73.310;2022-09-13T18:02:21;15.30;;;3.10;;
73567;SDS011;61847;54.994;73.310;2022-09-13T18:04:48;16.55;;;2.92;;
73567;SDS011;61847;54.994;73.310;2022-09-13T18:07:15;10.65;;;2.75;;
73567;SDS011;61847;54.994;73.310;2022-09-13T18:09:42;9.38;;;2.42;;
73567;SDS011;61847;54.994;73.310;2022-09-13T18:12:09;9.05;;;2.50;;
73567;SDS011;61847;54.994;73.310;2022-09-13T18:14:47;19.08;;;2.78;;
73567;SDS011;61847;54.994;73.310;2022-09-13T18:17:13;11.43;;;2.75;;
73567;SDS011;61847;54.994;73.310;2022-09-13T18:19:40;9.95;;;2.60;;
73567;SDS011;61847;54.994;73.310;2022-09-13T18:22:07;13.80;;;2.80;;
73567;SDS011;61847;54.994;73.310;2022-09-13T18:24:33;8.23;;;2.22;;
73567;SDS011;61847;54.994;73.310;2022-09-13T18:27:01;15.35;;;5.68;;
73567;SDS011;61847;54.994;73.310;2022-09-13T18:29:28;16.05;;;2.70;;
73567;SDS011;61847;54.994;73.310;2022-09-13T18:31:57;22.63;;;8.98;;
73567;SDS011;61847;54.994;73.310;2022-09-13T18:34:24;19.55;;;6.68;;
73567;SDS011;61847;54.994;73.310;2022-09-13T18:36:50;14.68;;;3.05;;
73567;SDS011;61847;54.994;73.310;2022-09-13T18:39:18;15.95;;;2.67;;
73567;SDS011;61847;54.994;73.310;2022-09-13T18:41:52;13.13;;;2.20;;
73567;SDS011;61847;54.994;73.310;2022-09-13T18:44:19;6.82;;;2.03;;
73567;SDS011;61847;54.994;73.310;2022-09-13T18:46:50;10.25;;;1.83;;
73567;SDS011;61847;54.994;73.310;2022-09-13T18:49:29;6.78;;;1.85;;
73567;SDS011;61847;54.994;73.310;2022-09-13T18:51:56;9.15;;;2.58;;
73567;SDS011;61847;54.994;73.310;2022-09-13T18:54:27;2.60;;;1.25;;
73567;SDS011;61847;54.994;73.310;2022-09-13T18:56:54;9.05;;;2.78;;
73567;SDS011;61847;54.994;73.310;2022-09-13T18:59:20;13.73;;;1.63;;